createdAt,value
2022-09-16T00:00:46.277Z,98952.59
2022-09-16T00:03:13.572Z,98958.41
2022-09-16T00:05:42.384Z,98952.97
2022-09-16T00:08:09.454Z,98956.34
2022-09-16T00:10:36.091Z,98961.78
2022-09-16T00:13:03.283Z,98963.84
2022-09-16T00:15:29.783Z,98960.44
2022-09-16T00:17:56.338Z,98964.31
2022-09-16T00:20:22.956Z,98963.50
2022-09-16T00:22:49.506Z,98958.03
2022-09-16T00:25:16.135Z,98956.13
2022-09-16T00:27:42.947Z,98955.00
2022-09-16T00:30:09.835Z,98953.88
2022-09-16T00:32:36.348Z,98958.84
2022-09-16T00:35:02.905Z,98967.47
2022-09-16T00:37:32.668Z,98956.38
2022-09-16T00:39:59.270Z,98958.91
2022-09-16T00:42:25.971Z,98957.09
2022-09-16T00:45:02.341Z,98960.31
2022-09-16T00:47:47.069Z,98956.09
2022-09-16T00:50:38.005Z,98961.88
2022-09-16T00:53:17.572Z,98961.88
2022-09-16T00:55:45.246Z,98959.63
2022-09-16T00:58:23.523Z,98960.75
2022-09-16T01:00:50.947Z,98949.88
2022-09-16T01:03:18.468Z,98953.72
2022-09-16T01:05:45.969Z,98961.44
2022-09-16T01:08:12.897Z,98954.38
2022-09-16T01:10:42.281Z,98959.34
2022-09-16T01:13:12.828Z,98961.31
2022-09-16T01:16:05.669Z,98961.97
2022-09-16T01:18:54.023Z,98953.81
2022-09-16T01:21:31.430Z,98970.94
2022-09-16T01:23:58.187Z,98956.63
2022-09-16T01:26:58.793Z,98967.75
2022-09-16T01:30:03.712Z,98972.25
2022-09-16T01:33:01.505Z,98960.91
2022-09-16T01:35:58.011Z,98961.22
2022-09-16T01:38:29.848Z,98957.03
2022-09-16T01:40:56.380Z,98962.03
2022-09-16T01:43:28.827Z,98960.91
2022-09-16T01:46:31.365Z,98958.84
2022-09-16T01:49:07.233Z,98957.94
2022-09-16T01:51:46.490Z,98954.72
2022-09-16T01:54:24.348Z,98961.31
2022-09-16T01:57:07.867Z,98958.59
2022-09-16T01:59:43.612Z,98966.56
2022-09-16T02:02:39.358Z,98961.13
2022-09-16T02:05:11.757Z,98954.09
2022-09-16T02:07:42.986Z,98961.13
2022-09-16T02:10:16.958Z,98960.00
2022-09-16T02:12:45.990Z,98955.69
2022-09-16T02:15:22.047Z,98953.28
2022-09-16T02:17:56.616Z,98947.06
2022-09-16T02:20:27.801Z,98958.72
2022-09-16T02:23:01.856Z,98952.50
2022-09-16T02:25:30.815Z,98963.38
2022-09-16T02:28:00.907Z,98960.31
2022-09-16T02:30:27.549Z,98954.09
2022-09-16T02:33:00.870Z,98956.34
2022-09-16T02:35:29.496Z,98955.88
2022-09-16T02:38:02.338Z,98957.66
2022-09-16T02:40:42.072Z,98958.09
2022-09-16T02:43:09.275Z,98959.09
2022-09-16T02:45:56.867Z,98965.06
2022-09-16T02:48:46.323Z,98965.28
2022-09-16T02:51:16.226Z,98967.53
2022-09-16T02:54:06.024Z,98961.19
2022-09-16T02:56:36.667Z,98969.81
2022-09-16T02:59:05.863Z,98969.94
2022-09-16T03:01:36.950Z,98965.94
2022-09-16T03:04:04.187Z,98964.38
2022-09-16T03:06:36.029Z,98961.66
2022-09-16T03:09:06.056Z,98959.59
2022-09-16T03:11:54.483Z,98964.56
2022-09-16T03:14:39.840Z,98957.53
2022-09-16T03:17:28.224Z,98958.66
2022-09-16T03:20:33.405Z,98953.41
2022-09-16T03:23:21.460Z,98954.44
2022-09-16T03:26:07.436Z,98954.75
2022-09-16T03:28:45.671Z,98958.28
2022-09-16T03:31:15.629Z,98957.63
2022-09-16T03:33:47.230Z,98962.25
2022-09-16T03:36:19.420Z,98951.34
2022-09-16T03:38:46.985Z,98957.94
2022-09-16T03:41:15.021Z,98952.84
2022-09-16T03:43:51.857Z,98955.09
2022-09-16T03:46:18.391Z,98958.94
2022-09-16T03:48:44.915Z,98954.97
2022-09-16T03:51:12.690Z,98957.22
2022-09-16T03:53:39.214Z,98954.97
2022-09-16T03:56:06.072Z,98951.78
2022-09-16T03:58:32.709Z,98948.72
2022-09-16T04:00:59.318Z,98957.53
2022-09-16T04:03:28.878Z,98943.81
2022-09-16T04:05:58.203Z,98943.31
2022-09-16T04:08:24.738Z,98940.50
2022-09-16T04:10:59.842Z,98940.69
2022-09-16T04:13:28.858Z,98939.44
2022-09-16T04:15:55.410Z,98946.47
2022-09-16T04:18:22.120Z,98943.59
2022-09-16T04:20:48.724Z,98939.94
2022-09-16T04:23:15.257Z,98943.00
2022-09-16T04:25:42.030Z,98951.03
2022-09-16T04:28:08.600Z,98950.72
2022-09-16T04:30:36.609Z,98950.22
2022-09-16T04:33:03.264Z,98951.34
2022-09-16T04:35:29.815Z,98959.00
2022-09-16T04:37:56.380Z,98960.78
2022-09-16T04:40:22.979Z,98956.81
2022-09-16T04:42:50.591Z,98967.19
2022-09-16T04:45:17.675Z,98957.47
2022-09-16T04:47:44.356Z,98962.13
2022-09-16T04:50:11.338Z,98956.69
2022-09-16T04:52:37.914Z,98964.38
2022-09-16T04:55:04.792Z,98958.94
2022-09-16T04:57:32.601Z,98956.22
2022-09-16T04:59:59.585Z,98954.81
2022-09-16T05:02:26.295Z,98956.88
2022-09-16T05:04:52.839Z,98954.09
2022-09-16T05:07:19.433Z,98946.28
2022-09-16T05:09:46.246Z,98953.78
2022-09-16T05:12:12.841Z,98951.94
2022-09-16T05:14:39.797Z,98953.06
2022-09-16T05:17:07.402Z,98964.75
2022-09-16T05:19:33.965Z,98971.84
2022-09-16T05:22:00.770Z,98972.09
2022-09-16T05:24:27.307Z,98970.50
2022-09-16T05:26:53.884Z,98975.19
2022-09-16T05:29:20.662Z,98973.25
2022-09-16T05:31:50.711Z,98982.19
2022-09-16T05:34:19.829Z,98980.34
2022-09-16T05:36:48.274Z,98983.94
2022-09-16T05:39:25.827Z,98982.53
2022-09-16T05:41:55.609Z,98980.47
2022-09-16T05:44:22.788Z,98977.50
2022-09-16T05:46:49.400Z,98981.34
2022-09-16T05:49:20.681Z,98989.72
2022-09-16T05:51:48.498Z,98980.53
2022-09-16T05:54:15.699Z,98981.50
2022-09-16T05:56:42.547Z,98989.22
2022-09-16T05:59:12.064Z,98972.72
2022-09-16T06:01:38.860Z,98983.63
2022-09-16T06:04:07.511Z,98983.66
2022-09-16T06:06:39.102Z,98967.09
2022-09-16T06:09:20.252Z,98976.31
2022-09-16T06:11:49.343Z,98966.09
2022-09-16T06:14:27.108Z,98977.59
2022-09-16T06:16:53.685Z,98977.28
2022-09-16T06:19:24.885Z,98977.13
2022-09-16T06:21:52.427Z,98985.31
2022-09-16T06:24:20.661Z,98989.22
2022-09-16T06:26:49.316Z,98985.03
2022-09-16T06:29:17.559Z,98984.34
2022-09-16T06:31:44.164Z,98987.47
2022-09-16T06:34:14.870Z,98984.47
2022-09-16T06:36:44.734Z,98987.78
2022-09-16T06:39:13.575Z,98977.22
2022-09-16T06:41:40.573Z,98981.91
2022-09-16T06:44:07.173Z,98990.56
2022-09-16T06:46:33.770Z,98982.03
2022-09-16T06:49:05.093Z,98982.34
2022-09-16T06:51:32.778Z,98982.63
2022-09-16T06:54:01.378Z,98989.16
2022-09-16T06:56:27.922Z,98989.56
2022-09-16T06:58:55.903Z,98987.22
2022-09-16T07:01:29.236Z,98993.81
2022-09-16T07:03:58.276Z,98991.22
2022-09-16T07:06:45.239Z,98995.03
2022-09-16T07:09:14.595Z,98995.69
2022-09-16T07:11:41.162Z,98997.06
2022-09-16T07:14:09.393Z,98988.59
2022-09-16T07:16:36.007Z,99001.59
2022-09-16T07:19:04.525Z,98992.03
2022-09-16T07:21:31.345Z,99001.34
2022-09-16T07:23:59.890Z,98995.13
2022-09-16T07:26:32.513Z,98995.94
2022-09-16T07:29:00.866Z,99002.81
2022-09-16T07:31:29.659Z,99006.41
2022-09-16T07:34:03.487Z,99008.53
2022-09-16T07:36:35.974Z,99009.56
2022-09-16T07:39:03.418Z,99006.94
2022-09-16T07:41:32.666Z,99006.94
2022-09-16T07:44:00.657Z,99015.97
2022-09-16T07:46:29.549Z,99013.47
2022-09-16T07:48:56.619Z,99022.75
2022-09-16T07:51:24.961Z,99027.06
2022-09-16T07:54:05.254Z,99025.00
2022-09-16T07:56:34.595Z,99027.94
2022-09-16T07:59:03.258Z,99027.53
2022-09-16T08:01:31.411Z,99034.56
2022-09-16T08:03:59.705Z,99026.56
2022-09-16T08:06:29.025Z,99030.16
2022-09-16T08:09:02.401Z,99031.81
2022-09-16T08:11:36.546Z,99033.28
2022-09-16T08:14:03.130Z,99030.63
2022-09-16T08:16:29.815Z,99029.75
2022-09-16T08:18:58.727Z,99033.00
2022-09-16T08:21:28.177Z,99025.31
2022-09-16T08:23:55.798Z,99028.59
2022-09-16T08:26:22.611Z,99034.41
2022-09-16T08:29:07.887Z,99034.41
2022-09-16T08:31:36.484Z,99038.72
2022-09-16T08:34:03.455Z,99040.63
2022-09-16T08:36:30.033Z,99031.78
2022-09-16T08:38:56.889Z,99036.22
2022-09-16T08:41:46.917Z,99035.75
2022-09-16T08:44:41.098Z,99040.06
2022-09-16T08:47:35.168Z,99045.63
2022-09-16T08:50:06.271Z,99038.50
2022-09-16T08:52:37.132Z,99049.88
2022-09-16T08:55:16.767Z,99038.72
2022-09-16T08:57:54.020Z,99049.66
2022-09-16T09:00:20.820Z,99041.00
2022-09-16T09:03:16.479Z,99052.72
2022-09-16T09:05:50.278Z,99054.31
2022-09-16T09:08:22.746Z,99054.19
2022-09-16T09:10:57.359Z,99054.97
2022-09-16T09:13:38.421Z,99057.94
2022-09-16T09:16:33.210Z,99048.47
2022-09-16T09:19:21.665Z,99051.22
2022-09-16T09:22:00.709Z,99037.38
2022-09-16T09:24:59.922Z,99047.81
2022-09-16T09:27:32.729Z,99033.75
2022-09-16T09:30:03.786Z,99035.69
2022-09-16T09:32:46.341Z,99036.91
2022-09-16T09:35:39.456Z,99043.75
2022-09-16T09:38:27.744Z,99035.09
2022-09-16T09:40:59.175Z,99029.16
2022-09-16T09:43:35.830Z,99026.06
2022-09-16T09:46:12.426Z,99030.63
2022-09-16T09:48:44.451Z,99029.59
2022-09-16T09:51:23.013Z,99028.16
2022-09-16T09:53:55.001Z,99029.78
2022-09-16T09:56:26.527Z,99028.78
2022-09-16T09:59:30.432Z,99034.53
2022-09-16T10:01:58.583Z,99032.09
2022-09-16T10:04:25.402Z,99040.00
2022-09-16T10:06:56.215Z,99042.63
2022-09-16T10:09:23.371Z,99038.53
2022-09-16T10:11:56.082Z,99041.38
2022-09-16T10:14:26.633Z,99029.69
2022-09-16T10:16:55.037Z,99030.72
2022-09-16T10:19:27.192Z,99027.69
2022-09-16T10:21:57.135Z,99028.75
2022-09-16T10:24:35.660Z,99030.19
2022-09-16T10:27:17.737Z,99020.63
2022-09-16T10:29:44.304Z,99023.13
2022-09-16T10:32:18.081Z,99017.22
2022-09-16T10:34:46.608Z,99016.53
2022-09-16T10:37:13.654Z,99030.56
2022-09-16T10:40:16.138Z,99012.97
2022-09-16T10:42:46.700Z,99012.06
2022-09-16T10:45:20.315Z,99012.06
2022-09-16T10:47:53.723Z,99006.25
2022-09-16T10:50:20.680Z,99007.50
2022-09-16T10:52:48.747Z,99028.97
2022-09-16T10:55:25.459Z,99031.38
2022-09-16T10:57:53.486Z,99025.25
2022-09-16T11:00:24.034Z,99034.25
2022-09-16T11:03:09.158Z,99034.56
2022-09-16T11:06:00.140Z,99021.78
2022-09-16T11:09:03.809Z,99015.56
2022-09-16T11:11:45.297Z,99034.94
2022-09-16T11:14:18.050Z,99024.06
2022-09-16T11:16:50.284Z,99022.06
2022-09-16T11:19:32.423Z,99029.41
2022-09-16T11:22:14.272Z,99018.34
2022-09-16T11:24:56.065Z,99025.94
2022-09-16T11:27:28.680Z,99027.69
2022-09-16T11:30:16.232Z,99026.88
2022-09-16T11:33:03.207Z,99023.44
2022-09-16T11:35:54.408Z,99040.66
2022-09-16T11:38:29.700Z,99024.78
2022-09-16T11:41:33.890Z,99031.00
2022-09-16T11:44:31.386Z,99038.69
2022-09-16T11:47:01.018Z,99027.97
2022-09-16T11:49:46.890Z,99030.78
2022-09-16T11:52:28.142Z,99027.56
2022-09-16T11:55:28.404Z,99025.59
2022-09-16T11:58:00.281Z,99024.31
2022-09-16T12:00:27.234Z,99018.06
2022-09-16T12:03:13.044Z,99028.63
2022-09-16T12:05:53.604Z,99007.19
2022-09-16T12:08:37.283Z,99016.25
2022-09-16T12:11:22.605Z,99013.91
2022-09-16T12:14:05.623Z,99015.56
2022-09-16T12:16:51.772Z,99005.72
2022-09-16T12:19:26.952Z,99007.66
2022-09-16T12:22:08.257Z,99012.31
2022-09-16T12:24:40.923Z,99004.22
2022-09-16T12:27:24.403Z,99009.69
2022-09-16T12:30:00.922Z,99015.25
2022-09-16T12:32:30.374Z,99002.97
2022-09-16T12:35:03.773Z,98997.75
2022-09-16T12:37:39.053Z,99004.72
2022-09-16T12:40:07.066Z,98995.91
2022-09-16T12:42:58.415Z,98993.50
2022-09-16T12:45:37.494Z,99013.66
2022-09-16T12:48:40.304Z,99013.13
2022-09-16T12:51:32.259Z,99025.34
2022-09-16T12:54:07.811Z,99023.66
2022-09-16T12:56:50.927Z,99016.59
2022-09-16T12:59:54.463Z,99023.69
2022-09-16T13:02:26.646Z,99019.38
2022-09-16T13:04:57.561Z,99012.78
2022-09-16T13:07:35.205Z,99019.75
2022-09-16T13:10:40.460Z,99040.03
2022-09-16T13:13:25.050Z,99059.50
2022-09-16T13:16:00.390Z,99077.97
2022-09-16T13:18:45.562Z,99061.78
2022-09-16T13:21:37.632Z,99070.19
2022-09-16T13:24:28.569Z,99074.63
2022-09-16T13:26:55.571Z,99066.03
2022-09-16T13:29:32.112Z,99057.72
2022-09-16T13:31:58.698Z,99056.66
2022-09-16T13:34:25.384Z,99074.84
2022-09-16T13:36:52.169Z,99057.59
2022-09-16T13:39:34.150Z,99060.97
2022-09-16T13:42:17.705Z,99054.41
2022-09-16T13:44:44.298Z,99052.03
2022-09-16T13:47:10.890Z,99048.19
2022-09-16T13:50:00.749Z,99044.66
2022-09-16T13:52:30.332Z,99043.88
2022-09-16T13:55:10.910Z,99038.09
2022-09-16T13:57:59.796Z,99038.06
2022-09-16T14:00:32.309Z,99038.50
2022-09-16T14:03:21.125Z,99037.69
2022-09-16T14:06:04.468Z,99035.72
2022-09-16T14:08:43.113Z,99033.25
2022-09-16T14:11:21.941Z,99027.63
2022-09-16T14:13:52.098Z,99032.44
2022-09-16T14:16:30.803Z,99030.19
2022-09-16T14:19:17.807Z,99037.69
2022-09-16T14:21:44.377Z,99025.94
2022-09-16T14:24:19.258Z,99027.16
2022-09-16T14:26:56.930Z,99029.66
2022-09-16T14:29:25.116Z,99032.69
2022-09-16T14:31:57.106Z,99022.63
2022-09-16T14:34:32.594Z,99023.69
2022-09-16T14:36:59.561Z,99026.59
2022-09-16T14:39:28.166Z,99025.66
2022-09-16T14:41:59.271Z,99028.56
2022-09-16T14:44:34.492Z,99028.66
2022-09-16T14:47:07.818Z,99020.19
2022-09-16T14:49:37.938Z,99021.22
2022-09-16T14:52:04.975Z,99031.97
2022-09-16T14:54:32.251Z,99017.47
2022-09-16T14:57:05.966Z,99027.97
2022-09-16T14:59:37.058Z,99039.44
2022-09-16T15:02:24.948Z,99033.00
2022-09-16T15:04:57.884Z,99039.72
2022-09-16T15:07:34.132Z,99069.44
2022-09-16T15:10:06.807Z,99065.56
2022-09-16T15:12:37.627Z,99085.00
2022-09-16T15:15:26.358Z,99105.75
2022-09-16T15:18:22.149Z,99117.16
2022-09-16T15:21:03.206Z,99117.78
2022-09-16T15:23:30.613Z,99118.59
2022-09-16T15:26:04.640Z,99123.31
2022-09-16T15:28:31.204Z,99131.25
2022-09-16T15:30:59.460Z,99118.13
2022-09-16T15:33:37.651Z,99115.06
2022-09-16T15:36:04.712Z,99120.50
2022-09-16T15:38:31.391Z,99111.69
2022-09-16T15:41:04.017Z,99112.63
2022-09-16T15:43:40.008Z,99105.13
2022-09-16T15:46:16.333Z,99106.72
2022-09-16T15:48:50.003Z,99105.50
2022-09-16T15:51:31.017Z,99105.66
2022-09-16T15:54:48.307Z,99104.03
2022-09-16T15:57:23.867Z,99105.97
2022-09-16T15:59:53.173Z,99112.84
2022-09-16T16:02:30.181Z,99120.34
2022-09-16T16:05:15.134Z,99111.56
2022-09-16T16:07:49.234Z,99112.72
2022-09-16T16:10:27.667Z,99104.28
2022-09-16T16:12:54.766Z,99108.44
2022-09-16T16:15:26.876Z,99098.56
2022-09-16T16:17:57.872Z,99091.88
2022-09-16T16:20:24.659Z,99097.16
2022-09-16T16:22:51.873Z,99099.75
2022-09-16T16:25:19.023Z,99099.09
2022-09-16T16:27:45.751Z,99099.59
2022-09-16T16:30:12.523Z,99103.09
2022-09-16T16:32:40.029Z,99109.78
2022-09-16T16:35:06.942Z,99113.63
2022-09-16T16:37:46.057Z,99113.63
2022-09-16T16:40:14.222Z,99109.31
2022-09-16T16:42:43.128Z,99115.06
2022-09-16T16:45:11.106Z,99116.03
2022-09-16T16:47:37.651Z,99118.75
2022-09-16T16:50:04.673Z,99125.00
2022-09-16T16:52:31.239Z,99123.69
2022-09-16T16:54:57.773Z,99125.91
2022-09-16T16:57:24.306Z,99130.69
2022-09-16T16:59:52.057Z,99127.34
2022-09-16T17:02:18.624Z,99131.00
2022-09-16T17:04:45.219Z,99119.97
2022-09-16T17:07:28.109Z,99124.94
2022-09-16T17:09:57.300Z,99118.69
2022-09-16T17:12:24.123Z,99118.03
2022-09-16T17:14:50.683Z,99136.25
2022-09-16T17:17:17.261Z,99138.13
2022-09-16T17:19:43.820Z,99132.50
2022-09-16T17:22:11.424Z,99132.38
2022-09-16T17:24:37.977Z,99137.78
2022-09-16T17:27:04.712Z,99157.88
2022-09-16T17:29:31.332Z,99149.06
2022-09-16T17:32:00.721Z,99153.53
2022-09-16T17:34:27.605Z,99145.69
2022-09-16T17:36:54.665Z,99156.53
2022-09-16T17:39:22.205Z,99169.63
2022-09-16T17:41:49.922Z,99156.06
2022-09-16T17:44:18.016Z,99157.81
2022-09-16T17:46:45.714Z,99159.06
2022-09-16T17:49:21.798Z,99142.44
2022-09-16T17:51:49.373Z,99158.53
2022-09-16T17:54:16.709Z,99156.75
2022-09-16T17:56:44.143Z,99144.13
2022-09-16T17:59:12.720Z,99145.56
2022-09-16T18:01:39.634Z,99148.56
2022-09-16T18:04:06.908Z,99139.19
2022-09-16T18:06:39.975Z,99142.47
2022-09-16T18:09:07.509Z,99151.22
2022-09-16T18:11:35.277Z,99143.69
2022-09-16T18:14:04.490Z,99146.31
2022-09-16T18:16:31.764Z,99154.06
2022-09-16T18:19:00.588Z,99154.69
2022-09-16T18:21:28.179Z,99166.44
2022-09-16T18:23:57.298Z,99164.06
2022-09-16T18:26:24.444Z,99170.56
2022-09-16T18:29:09.091Z,99172.47
2022-09-16T18:31:36.171Z,99175.50
2022-09-16T18:34:02.770Z,99179.31
2022-09-16T18:36:30.318Z,99177.53
2022-09-16T18:38:58.491Z,99175.09
2022-09-16T18:41:27.402Z,99181.63
2022-09-16T18:44:04.940Z,99185.75
2022-09-16T18:46:33.769Z,99192.28
2022-09-16T18:49:00.828Z,99192.56
2022-09-16T18:51:33.492Z,99192.56
2022-09-16T18:54:03.029Z,99199.09
2022-09-16T18:56:35.063Z,99196.69
2022-09-16T18:59:20.961Z,99200.63
2022-09-16T19:01:49.105Z,99204.63
2022-09-16T19:04:18.968Z,99199.22
2022-09-16T19:06:50.806Z,99202.53
2022-09-16T19:09:19.305Z,99211.78
2022-09-16T19:11:45.917Z,99216.66
2022-09-16T19:14:14.242Z,99219.47
2022-09-16T19:16:42.947Z,99226.63
2022-09-16T19:19:12.008Z,99222.91
2022-09-16T19:21:38.770Z,99224.81
2022-09-16T19:24:07.701Z,99228.34
2022-09-16T19:26:36.756Z,99231.81
2022-09-16T19:29:07.555Z,99228.72
2022-09-16T19:31:37.126Z,99232.94
2022-09-16T19:34:03.821Z,99234.16
2022-09-16T19:36:32.413Z,99233.16
2022-09-16T19:38:59.751Z,99219.75
2022-09-16T19:41:31.652Z,99230.38
2022-09-16T19:44:01.430Z,99220.78
2022-09-16T19:46:31.743Z,99239.19
2022-09-16T19:48:58.700Z,99235.38
2022-09-16T19:51:26.721Z,99228.38
2022-09-16T19:53:55.051Z,99228.16
2022-09-16T19:56:24.751Z,99224.47
2022-09-16T19:58:52.424Z,99235.91
2022-09-16T20:01:21.818Z,99232.16
2022-09-16T20:03:51.280Z,99231.16
2022-09-16T20:06:23.480Z,99236.06
2022-09-16T20:08:58.765Z,99240.97
2022-09-16T20:11:27.903Z,99247.97
2022-09-16T20:13:56.981Z,99251.56
2022-09-16T20:16:26.462Z,99249.97
2022-09-16T20:18:53.823Z,99244.94
2022-09-16T20:21:23.760Z,99243.91
2022-09-16T20:23:52.082Z,99244.22
2022-09-16T20:26:20.138Z,99240.22
2022-09-16T20:28:50.818Z,99247.31
2022-09-16T20:31:22.635Z,99237.13
2022-09-16T20:33:49.771Z,99242.00
2022-09-16T20:36:18.478Z,99237.72
2022-09-16T20:38:45.946Z,99246.31
2022-09-16T20:41:15.964Z,99230.72
2022-09-16T20:43:43.150Z,99244.22
2022-09-16T20:46:15.596Z,99239.69
2022-09-16T20:48:43.072Z,99243.50
2022-09-16T20:51:14.949Z,99240.28
2022-09-16T20:53:44.923Z,99243.00
2022-09-16T20:56:15.646Z,99247.38
2022-09-16T20:58:42.990Z,99254.44
2022-09-16T21:01:18.718Z,99249.97
2022-09-16T21:03:45.715Z,99244.56
2022-09-16T21:06:17.340Z,99254.88
2022-09-16T21:08:44.271Z,99258.66
2022-09-16T21:11:13.574Z,99259.22
2022-09-16T21:13:43.988Z,99259.81
2022-09-16T21:16:13.680Z,99258.03
2022-09-16T21:18:40.536Z,99256.41
2022-09-16T21:21:19.560Z,99255.09
2022-09-16T21:23:47.219Z,99258.63
2022-09-16T21:26:16.870Z,99258.63
2022-09-16T21:28:44.801Z,99265.38
2022-09-16T21:31:13.367Z,99264.56
2022-09-16T21:33:42.054Z,99259.19
2022-09-16T21:36:12.424Z,99255.38
2022-09-16T21:38:40.316Z,99256.97
2022-09-16T21:41:12.977Z,99266.50
2022-09-16T21:43:55.620Z,99265.97
2022-09-16T21:46:25.863Z,99266.78
2022-09-16T21:48:55.665Z,99260.88
2022-09-16T21:51:22.216Z,99266.56
2022-09-16T21:53:48.721Z,99274.38
2022-09-16T21:56:20.928Z,99271.59
2022-09-16T21:58:49.000Z,99265.63
2022-09-16T22:01:24.278Z,99268.81
2022-09-16T22:03:59.101Z,99276.09
2022-09-16T22:06:27.271Z,99274.00
2022-09-16T22:08:55.410Z,99275.19
2022-09-16T22:11:25.454Z,99270.94
2022-09-16T22:13:54.090Z,99272.56
2022-09-16T22:16:27.407Z,99277.97
2022-09-16T22:19:00.634Z,99276.13
2022-09-16T22:21:32.109Z,99269.50
2022-09-16T22:24:00.974Z,99274.47
2022-09-16T22:26:28.548Z,99278.81
2022-09-16T22:28:55.298Z,99281.53
2022-09-16T22:31:25.392Z,99274.53
2022-09-16T22:33:53.922Z,99279.72
2022-09-16T22:36:25.733Z,99269.78
2022-09-16T22:38:57.091Z,99277.38
2022-09-16T22:41:25.203Z,99268.47
2022-09-16T22:43:53.012Z,99280.31
2022-09-16T22:46:25.162Z,99277.59
2022-09-16T22:48:52.528Z,99282.78
2022-09-16T22:51:20.633Z,99277.97
2022-09-16T22:53:48.335Z,99273.75
2022-09-16T22:56:17.936Z,99278.09
2022-09-16T22:58:45.662Z,99272.69
2022-09-16T23:01:15.435Z,99274.88
2022-09-16T23:03:43.283Z,99278.16
2022-09-16T23:06:13.135Z,99281.94
2022-09-16T23:08:42.175Z,99290.84
2022-09-16T23:11:14.645Z,99286.03
2022-09-16T23:13:45.335Z,99288.19
2022-09-16T23:16:17.871Z,99289.28
2022-09-16T23:18:46.083Z,99288.00
2022-09-16T23:21:16.018Z,99298.78
2022-09-16T23:23:45.021Z,99289.59
2022-09-16T23:26:17.229Z,99282.81
2022-09-16T23:28:44.547Z,99296.00
2022-09-16T23:31:16.665Z,99290.63
2022-09-16T23:33:44.207Z,99286.59
2022-09-16T23:36:14.654Z,99283.91
2022-09-16T23:38:42.619Z,99282.81
2022-09-16T23:41:13.407Z,99282.03
2022-09-16T23:43:43.934Z,99279.91
2022-09-16T23:46:14.217Z,99280.19
2022-09-16T23:48:42.567Z,99295.84
2022-09-16T23:51:09.254Z,99295.56
2022-09-16T23:53:37.288Z,99290.75
2022-09-16T23:56:08.364Z,99297.25
2022-09-16T23:58:35.383Z,99296.69
